Time;durP1;ratioP1;P1;durP2;ratioP2;P2;SDS_P1;SDS_P2;PMS_P1;PMS_P2;Temp;Humidity;BMP_temperature;BMP_pressure;BME280_temperature;BME280_humidity;BME280_pressure;Samples;Min_cycle;Max_cycle;Signal;HPM_P1;HPM_P2
2021/07/20 00:00:47;;;;;;;7.28;5.95;;;;;;;;;;1490748;39;20523;-83
2021/07/20 00:01:49;;;;;;;6.80;5.60;;;;;;;;;;1485614;40;20478;-83
2021/07/20 00:02:52;;;;;;;8.43;6.20;;;;;;;;;;1485810;39;20411;-83
2021/07/20 00:03:54;;;;;;;8.75;6.57;;;;;;;;;;1485633;40;20415;-82
2021/07/20 00:05:21;;;;;;;8.88;6.55;;;;;;;;;;1487581;39;20397;-83
2021/07/20 00:06:23;;;;;;;8.15;6.30;;;;;;;;;;1485877;40;20691;-83
2021/07/20 00:07:24;;;;;;;7.97;6.80;;;;;;;;;;1486137;39;20453;-83
2021/07/20 00:08:26;;;;;;;8.63;6.47;;;;;;;;;;1485597;40;20496;-83
2021/07/20 00:09:27;;;;;;;8.73;5.88;;;;;;;;;;1485828;40;20423;-83
2021/07/20 00:10:39;;;;;;;7.00;5.70;;;;;;;;;;1486121;39;20407;-83
2021/07/20 00:11:41;;;;;;;9.13;6.25;;;;;;;;;;1490627;39;20382;-83
2021/07/20 00:12:42;;;;;;;9.20;6.10;;;;;;;;;;1490559;39;20441;-82
2021/07/20 00:13:44;;;;;;;11.13;6.40;;;;;;;;;;1490628;39;20445;-83
2021/07/20 00:14:46;;;;;;;10.67;6.90;;;;;;;;;;1485577;40;20785;-84
2021/07/20 00:15:48;;;;;;;8.23;6.32;;;;;;;;;;1485735;39;20414;-84
2021/07/20 00:16:49;;;;;;;8.45;6.45;;;;;;;;;;1485286;40;20438;-82
2021/07/20 00:17:54;;;;;;;7.22;6.40;;;;;;;;;;1477031;40;20957;-82
2021/07/20 00:18:56;;;;;;;11.02;6.20;;;;;;;;;;1482372;39;20488;-82
2021/07/20 00:19:58;;;;;;;11.27;6.13;;;;;;;;;;1490441;39;20603;-82
2021/07/20 00:21:02;;;;;;;8.70;6.38;;;;;;;;;;1490480;39;20405;-82
2021/07/20 00:22:04;;;;;;;10.15;7.07;;;;;;;;;;1485456;40;20447;-82
2021/07/20 00:23:06;;;;;;;9.40;6.00;;;;;;;;;;1481544;40;20436;-82
2021/07/20 00:24:10;;;;;;;11.07;6.45;;;;;;;;;;1486045;39;21009;-82
2021/07/20 00:25:12;;;;;;;8.85;6.85;;;;;;;;;;1490454;39;20448;-82
2021/07/20 00:26:15;;;;;;;9.00;6.43;;;;;;;;;;1490999;39;20440;-82
2021/07/20 00:27:16;;;;;;;10.05;7.00;;;;;;;;;;1490181;39;21078;-82
2021/07/20 00:28:19;;;;;;;7.10;6.20;;;;;;;;;;1490235;39;20684;-82
2021/07/20 00:29:21;;;;;;;10.10;6.60;;;;;;;;;;1486038;40;20406;-82
2021/07/20 00:30:23;;;;;;;8.27;6.38;;;;;;;;;;1481953;40;20462;-82
2021/07/20 00:31:24;;;;;;;8.82;6.38;;;;;;;;;;1485754;39;20463;-82
2021/07/20 00:32:26;;;;;;;9.40;6.38;;;;;;;;;;1481199;40;20420;-82
2021/07/20 00:33:27;;;;;;;10.02;6.22;;;;;;;;;;1481757;40;20496;-83
2021/07/20 00:34:29;;;;;;;8.32;6.75;;;;;;;;;;1485979;39;20539;-82
2021/07/20 00:35:31;;;;;;;8.30;6.38;;;;;;;;;;1490651;39;20508;-82
2021/07/20 00:36:33;;;;;;;9.18;6.15;;;;;;;;;;1485787;40;20405;-82
2021/07/20 00:37:36;;;;;;;6.90;6.07;;;;;;;;;;1485679;39;20449;-82
2021/07/20 00:38:38;;;;;;;8.90;6.68;;;;;;;;;;1485889;40;21055;-82
2021/07/20 00:39:39;;;;;;;10.40;6.97;;;;;;;;;;1481265;40;20546;-82
2021/07/20 00:40:42;;;;;;;7.80;5.97;;;;;;;;;;1477298;40;20851;-82
2021/07/20 00:41:43;;;;;;;9.18;6.47;;;;;;;;;;1485511;39;21142;-82
2021/07/20 00:42:46;;;;;;;8.18;6.78;;;;;;;;;;1490337;39;20405;-84
2021/07/20 00:43:47;;;;;;;10.40;7.00;;;;;;;;;;1490293;39;20404;-83
2021/07/20 00:44:49;;;;;;;9.55;6.40;;;;;;;;;;1485578;40;20911;-83
2021/07/20 00:45:51;;;;;;;10.25;6.70;;;;;;;;;;1477262;40;20803;-82
2021/07/20 00:46:53;;;;;;;9.77;6.65;;;;;;;;;;1477357;40;20409;-81
2021/07/20 00:47:56;;;;;;;9.90;6.63;;;;;;;;;;1485697;39;20407;-83
2021/07/20 00:48:58;;;;;;;8.63;6.22;;;;;;;;;;1490313;39;20421;-82
2021/07/20 00:50:00;;;;;;;10.20;6.70;;;;;;;;;;1490008;39;20771;-82
2021/07/20 00:51:01;;;;;;;9.63;6.93;;;;;;;;;;1485793;40;20521;-82
2021/07/20 00:52:03;;;;;;;12.50;6.97;;;;;;;;;;1485420;39;20549;-82
2021/07/20 00:53:06;;;;;;;8.50;6.53;;;;;;;;;;1490302;39;21108;-83
2021/07/20 00:54:07;;;;;;;9.32;6.53;;;;;;;;;;1489786;39;21070;-82
2021/07/20 00:55:10;;;;;;;9.05;6.78;;;;;;;;;;1490273;39;21307;-82
2021/07/20 00:56:12;;;;;;;9.95;6.50;;;;;;;;;;1490129;39;20838;-82
2021/07/20 00:57:14;;;;;;;8.18;5.75;;;;;;;;;;1485408;40;20774;-82
2021/07/20 00:58:17;;;;;;;8.18;6.43;;;;;;;;;;1481643;40;20424;-82
2021/07/20 00:59:19;;;;;;;9.68;6.93;;;;;;;;;;1485870;39;20418;-81
2021/07/20 01:00:22;;;;;;;8.75;6.85;;;;;;;;;;1485658;40;20460;-82
2021/07/20 01:01:24;;;;;;;9.23;6.55;;;;;;;;;;1485183;39;20497;-81
2021/07/20 01:02:27;;;;;;;8.32;6.50;;;;;;;;;;1489888;39;20448;-82
2021/07/20 01:03:31;;;;;;;10.25;7.03;;;;;;;;;;1485528;40;20812;-82
2021/07/20 01:04:32;;;;;;;11.80;6.88;;;;;;;;;;1485684;39;20432;-83
2021/07/20 01:05:36;;;;;;;9.40;7.10;;;;;;;;;;1485891;40;20399;-82
2021/07/20 01:06:38;;;;;;;11.70;7.38;;;;;;;;;;1485730;39;20403;-82
2021/07/20 01:07:43;;;;;;;10.95;7.45;;;;;;;;;;1490305;39;20401;-83
2021/07/20 01:08:46;;;;;;;8.48;6.80;;;;;;;;;;1485890;40;20509;-82
2021/07/20 01:09:48;;;;;;;9.18;7.57;;;;;;;;;;1482287;40;20810;-83
2021/07/20 01:10:51;;;;;;;10.70;7.15;;;;;;;;;;1477939;40;20871;-83
2021/07/20 01:11:54;;;;;;;9.25;6.72;;;;;;;;;;1478170;40;20403;-82
2021/07/20 01:12:57;;;;;;;8.87;6.53;;;;;;;;;;1486344;39;20458;-82
2021/07/20 01:14:01;;;;;;;11.27;7.45;;;;;;;;;;1486877;40;20506;-81
2021/07/20 01:15:04;;;;;;;11.05;7.50;;;;;;;;;;1482573;40;20427;-81
2021/07/20 01:16:06;;;;;;;9.05;7.30;;;;;;;;;;1487037;39;20411;-82
2021/07/20 01:17:09;;;;;;;9.27;7.03;;;;;;;;;;1486499;40;20443;-83
2021/07/20 01:18:12;;;;;;;9.63;6.93;;;;;;;;;;1486540;39;20484;-82
2021/07/20 01:19:16;;;;;;;10.10;7.57;;;;;;;;;;1486220;40;20415;-81
2021/07/20 01:20:19;;;;;;;8.52;6.82;;;;;;;;;;1486757;39;20512;-82
2021/07/20 01:21:26;;;;;;;12.38;8.32;;;;;;;;;;1486485;40;21007;-82
2021/07/20 01:22:30;;;;;;;13.40;7.77;;;;;;;;;;1482307;40;20389;-83
2021/07/20 01:23:43;;;;;;;10.67;7.10;;;;;;;;;;1486442;39;21448;-82
2021/07/20 01:24:45;;;;;;;9.95;7.53;;;;;;;;;;1490797;39;20428;-81
2021/07/20 01:25:48;;;;;;;11.05;8.38;;;;;;;;;;1486278;40;20767;-83
2021/07/20 01:26:49;;;;;;;13.25;7.57;;;;;;;;;;1482071;40;20785;-83
2021/07/20 01:27:56;;;;;;;11.10;7.53;;;;;;;;;;1486262;39;20433;-83
2021/07/20 01:28:59;;;;;;;13.95;8.00;;;;;;;;;;1486310;40;20452;-82
2021/07/20 01:30:01;;;;;;;11.93;7.60;;;;;;;;;;1485983;40;20483;-81
2021/07/20 01:31:09;;;;;;;9.95;7.32;;;;;;;;;;1482061;40;20439;-83
2021/07/20 01:32:11;;;;;;;10.98;7.20;;;;;;;;;;1486993;39;20497;-81
2021/07/20 01:33:15;;;;;;;11.00;8.23;;;;;;;;;;1486421;40;20399;-82
2021/07/20 01:34:18;;;;;;;12.85;7.05;;;;;;;;;;1486683;39;20466;-81
2021/07/20 01:35:21;;;;;;;11.05;7.88;;;;;;;;;;1486557;40;20495;-81
2021/07/20 01:36:24;;;;;;;12.18;8.13;;;;;;;;;;1486854;39;20494;-81
2021/07/20 01:37:28;;;;;;;12.70;8.25;;;;;;;;;;1487908;39;20469;-81
2021/07/20 01:38:30;;;;;;;10.45;7.65;;;;;;;;;;1491207;39;20441;-82
2021/07/20 01:39:33;;;;;;;13.10;7.88;;;;;;;;;;1491477;40;20429;-82
2021/07/20 01:40:37;;;;;;;12.77;8.20;;;;;;;;;;1483201;40;20473;-81
2021/07/20 01:41:41;;;;;;;11.48;7.95;;;;;;;;;;1487100;39;20450;-80
2021/07/20 01:42:44;;;;;;;10.82;7.70;;;;;;;;;;1494159;39;20458;-80
2021/07/20 01:43:51;;;;;;;11.77;8.50;;;;;;;;;;1490458;40;20428;-82
2021/07/20 01:44:56;;;;;;;10.20;8.27;;;;;;;;;;1492397;39;20493;-83
2021/07/20 01:46:00;;;;;;;10.80;7.43;;;;;;;;;;1492341;40;20447;-82
2021/07/20 01:47:02;;;;;;;13.30;9.25;;;;;;;;;;1492332;39;20419;-81
2021/07/20 01:48:06;;;;;;;11.75;7.82;;;;;;;;;;1493541;39;20393;-81
2021/07/20 01:49:12;;;;;;;12.63;7.88;;;;;;;;;;1488059;40;20441;-81
2021/07/20 01:50:17;;;;;;;13.63;8.48;;;;;;;;;;1488322;39;20709;-81
2021/07/20 01:51:19;;;;;;;12.40;7.70;;;;;;;;;;1491748;39;20412;-81
2021/07/20 01:52:21;;;;;;;9.88;7.75;;;;;;;;;;1482651;40;20512;-82
2021/07/20 01:53:23;;;;;;;12.07;7.90;;;;;;;;;;1482504;40;20468;-82
2021/07/20 01:54:25;;;;;;;13.88;8.93;;;;;;;;;;1486782;39;20537;-81
2021/07/20 01:55:28;;;;;;;13.00;8.80;;;;;;;;;;1491114;39;20452;-82
2021/07/20 01:56:29;;;;;;;14.52;8.55;;;;;;;;;;1493666;39;20571;-81
2021/07/20 01:57:33;;;;;;;10.77;7.95;;;;;;;;;;1495063;39;20524;-82
2021/07/20 01:58:41;;;;;;;13.90;8.80;;;;;;;;;;1495137;39;20557;-82
2021/07/20 01:59:45;;;;;;;13.40;8.82;;;;;;;;;;1495394;39;20400;-82
2021/07/20 02:00:48;;;;;;;11.73;7.72;;;;;;;;;;1486519;40;20454;-83
2021/07/20 02:04:34;;;;;;;12.32;8.63;;;;;;;;;;1494879;39;20392;-82
2021/07/20 02:08:29;;;;;;;11.88;7.97;;;;;;;;;;1494918;39;20816;-82
2021/07/20 02:09:32;;;;;;;11.82;8.57;;;;;;;;;;1495010;39;20431;-82
2021/07/20 02:10:34;;;;;;;12.57;8.05;;;;;;;;;;1485867;40;20496;-82
2021/07/20 02:11:38;;;;;;;10.45;7.78;;;;;;;;;;1482243;39;20516;-83
2021/07/20 02:12:43;;;;;;;13.32;9.25;;;;;;;;;;1490667;39;20834;-82
2021/07/20 02:13:55;;;;;;;13.63;9.07;;;;;;;;;;1486332;40;20497;-82
2021/07/20 02:14:57;;;;;;;13.80;9.50;;;;;;;;;;1487665;39;20467;-82
2021/07/20 02:16:00;;;;;;;11.57;8.63;;;;;;;;;;1490294;39;20393;-82
2021/07/20 02:17:02;;;;;;;11.85;8.35;;;;;;;;;;1477847;40;20410;-82
2021/07/20 02:18:05;;;;;;;13.57;9.00;;;;;;;;;;1478022;40;20606;-82
2021/07/20 02:19:16;;;;;;;15.30;9.02;;;;;;;;;;1485637;39;20461;-82
2021/07/20 02:20:24;;;;;;;14.40;9.13;;;;;;;;;;1490197;39;20799;-83
2021/07/20 02:21:28;;;;;;;14.65;8.57;;;;;;;;;;1490646;39;20462;-82
2021/07/20 02:22:31;;;;;;;13.98;9.70;;;;;;;;;;1494937;39;20631;-80
2021/07/20 02:23:34;;;;;;;12.60;9.23;;;;;;;;;;1489992;39;20470;-81
2021/07/20 02:24:37;;;;;;;14.35;8.98;;;;;;;;;;1486302;39;20423;-80
2021/07/20 02:25:41;;;;;;;12.48;8.88;;;;;;;;;;1490283;39;20496;-81
2021/07/20 02:26:58;;;;;;;16.20;8.88;;;;;;;;;;1490750;39;20433;-80
2021/07/20 02:28:00;;;;;;;13.15;9.25;;;;;;;;;;1490541;39;20469;-80
2021/07/20 02:29:03;;;;;;;13.95;9.00;;;;;;;;;;1485877;40;20515;-81
2021/07/20 02:30:11;;;;;;;12.40;8.82;;;;;;;;;;1485962;39;20473;-80
2021/07/20 02:31:15;;;;;;;13.65;8.93;;;;;;;;;;1485721;40;20564;-80
2021/07/20 02:32:18;;;;;;;14.20;8.63;;;;;;;;;;1486161;39;20398;-81
2021/07/20 02:33:21;;;;;;;12.80;8.25;;;;;;;;;;1490371;39;20389;-82
2021/07/20 02:34:26;;;;;;;12.40;9.15;;;;;;;;;;1490338;39;20421;-80
2021/07/20 02:35:29;;;;;;;15.52;9.30;;;;;;;;;;1490585;39;20750;-81
2021/07/20 02:36:35;;;;;;;13.88;9.02;;;;;;;;;;1490328;39;20405;-80
2021/07/20 02:37:40;;;;;;;15.80;10.05;;;;;;;;;;1490784;39;20429;-80
2021/07/20 02:38:44;;;;;;;14.95;9.02;;;;;;;;;;1485707;40;20458;-81
2021/07/20 02:39:46;;;;;;;16.75;9.40;;;;;;;;;;1486176;39;20415;-81
2021/07/20 02:40:50;;;;;;;19.15;9.65;;;;;;;;;;1490437;39;20400;-81
2021/07/20 02:41:55;;;;;;;12.32;8.80;;;;;;;;;;1490579;39;20393;-81
2021/07/20 02:43:00;;;;;;;14.57;10.27;;;;;;;;;;1490875;39;20393;-80
2021/07/20 02:44:02;;;;;;;17.48;8.95;;;;;;;;;;1485803;40;20473;-80
2021/07/20 02:45:10;;;;;;;15.55;9.68;;;;;;;;;;1481759;40;20783;-80
2021/07/20 02:46:12;;;;;;;13.90;8.60;;;;;;;;;;1486120;39;20509;-80
2021/07/20 02:47:14;;;;;;;16.40;9.68;;;;;;;;;;1490804;39;20437;-80
2021/07/20 02:48:17;;;;;;;13.70;9.18;;;;;;;;;;1490271;39;20782;-80
2021/07/20 02:49:20;;;;;;;15.20;9.80;;;;;;;;;;1485746;40;20419;-81
2021/07/20 02:50:22;;;;;;;14.88;9.27;;;;;;;;;;1482292;40;20575;-82
2021/07/20 02:51:29;;;;;;;12.05;8.80;;;;;;;;;;1481840;40;21355;-82
2021/07/20 02:52:32;;;;;;;14.73;9.77;;;;;;;;;;1486513;39;20402;-81
2021/07/20 02:53:38;;;;;;;15.20;9.57;;;;;;;;;;1490255;39;20428;-82
2021/07/20 02:54:41;;;;;;;13.50;9.25;;;;;;;;;;1490878;39;20461;-82
2021/07/20 02:55:43;;;;;;;15.88;9.77;;;;;;;;;;1491456;39;20417;-82
2021/07/20 02:56:45;;;;;;;15.60;9.35;;;;;;;;;;1490789;39;20435;-81
2021/07/20 02:57:48;;;;;;;13.55;9.20;;;;;;;;;;1490551;39;20986;-81
2021/07/20 02:58:55;;;;;;;16.55;9.88;;;;;;;;;;1490845;39;20779;-82
2021/07/20 02:59:58;;;;;;;16.23;9.77;;;;;;;;;;1485779;40;20427;-82
2021/07/20 03:01:01;;;;;;;13.93;9.73;;;;;;;;;;1481765;40;20472;-83
2021/07/20 03:02:04;;;;;;;15.48;9.20;;;;;;;;;;1486129;39;20750;-82
2021/07/20 03:03:10;;;;;;;15.98;9.55;;;;;;;;;;1489959;39;20420;-82
2021/07/20 03:04:12;;;;;;;12.65;9.25;;;;;;;;;;1490865;39;20401;-82
2021/07/20 03:05:15;;;;;;;17.42;9.57;;;;;;;;;;1486144;40;20415;-83
2021/07/20 03:06:22;;;;;;;15.27;9.40;;;;;;;;;;1485955;40;20484;-82
2021/07/20 03:07:27;;;;;;;14.80;9.55;;;;;;;;;;1486458;39;20460;-82
2021/07/20 03:08:29;;;;;;;15.30;9.45;;;;;;;;;;1490634;39;20758;-82
2021/07/20 03:09:33;;;;;;;14.23;9.63;;;;;;;;;;1485871;40;20755;-82
2021/07/20 03:10:36;;;;;;;16.73;9.95;;;;;;;;;;1477640;40;20414;-81
2021/07/20 03:11:41;;;;;;;15.70;10.05;;;;;;;;;;1477673;40;20402;-82
2021/07/20 03:12:47;;;;;;;16.52;9.88;;;;;;;;;;1482360;40;20411;-82
2021/07/20 03:13:54;;;;;;;15.68;9.85;;;;;;;;;;1486129;39;20689;-82
2021/07/20 03:14:58;;;;;;;14.60;10.18;;;;;;;;;;1490200;39;20520;-82
2021/07/20 03:16:03;;;;;;;14.20;9.55;;;;;;;;;;1485697;40;20735;-83
2021/07/20 03:17:08;;;;;;;17.08;10.27;;;;;;;;;;1486187;39;20399;-82
2021/07/20 03:18:12;;;;;;;17.45;9.82;;;;;;;;;;1490463;39;20393;-82
2021/07/20 03:19:15;;;;;;;17.35;10.63;;;;;;;;;;1490540;39;20400;-82
2021/07/20 03:20:18;;;;;;;14.43;9.35;;;;;;;;;;1490470;39;20402;-81
2021/07/20 03:21:20;;;;;;;17.20;11.13;;;;;;;;;;1490112;39;20800;-83
2021/07/20 03:22:27;;;;;;;16.98;10.55;;;;;;;;;;1486001;40;20505;-82
2021/07/20 03:23:30;;;;;;;15.20;9.80;;;;;;;;;;1482111;40;20409;-82
2021/07/20 03:24:34;;;;;;;16.33;10.40;;;;;;;;;;1481856;40;20416;-83
2021/07/20 03:25:36;;;;;;;17.50;9.70;;;;;;;;;;1485838;39;20803;-83
2021/07/20 03:26:39;;;;;;;15.82;10.55;;;;;;;;;;1486012;39;20523;-82
2021/07/20 03:27:43;;;;;;;15.95;10.13;;;;;;;;;;1490343;39;20405;-82
2021/07/20 03:28:47;;;;;;;14.80;10.65;;;;;;;;;;1490368;39;20836;-81
2021/07/20 03:29:51;;;;;;;15.35;10.60;;;;;;;;;;1485469;39;20426;-83
2021/07/20 03:30:53;;;;;;;16.52;10.27;;;;;;;;;;1482039;40;20428;-83
2021/07/20 03:31:56;;;;;;;15.23;10.32;;;;;;;;;;1485886;39;20403;-81
2021/07/20 03:32:58;;;;;;;16.25;10.02;;;;;;;;;;1490376;39;20416;-82
2021/07/20 03:34:01;;;;;;;18.52;11.15;;;;;;;;;;1490419;39;20421;-82
2021/07/20 03:35:05;;;;;;;19.10;11.60;;;;;;;;;;1490455;39;20463;-82
2021/07/20 03:36:07;;;;;;;17.00;9.68;;;;;;;;;;1490522;39;20453;-81
2021/07/20 03:37:10;;;;;;;17.48;11.15;;;;;;;;;;1481561;40;20425;-82
2021/07/20 03:38:13;;;;;;;16.67;11.07;;;;;;;;;;1473747;40;21177;-82
2021/07/20 03:39:17;;;;;;;21.48;10.75;;;;;;;;;;1481824;39;20438;-80
2021/07/20 03:40:19;;;;;;;20.90;11.57;;;;;;;;;;1490374;39;20499;-82
2021/07/20 03:41:24;;;;;;;17.15;10.27;;;;;;;;;;1485875;40;20403;-81
2021/07/20 03:42:26;;;;;;;17.58;10.65;;;;;;;;;;1486033;39;20460;-82
2021/07/20 03:43:28;;;;;;;15.65;10.48;;;;;;;;;;1490182;39;20485;-83
2021/07/20 03:44:31;;;;;;;15.87;10.50;;;;;;;;;;1490338;39;20833;-82
2021/07/20 03:45:32;;;;;;;16.58;10.75;;;;;;;;;;1490612;39;20522;-82
2021/07/20 03:46:34;;;;;;;17.98;10.23;;;;;;;;;;1481491;40;20866;-82
2021/07/20 03:47:37;;;;;;;18.95;11.10;;;;;;;;;;1481548;40;20400;-81
2021/07/20 03:48:40;;;;;;;17.65;11.48;;;;;;;;;;1481879;40;20456;-82
2021/07/20 03:49:42;;;;;;;18.05;10.52;;;;;;;;;;1482243;39;20795;-82
2021/07/20 03:50:46;;;;;;;22.38;11.65;;;;;;;;;;1485727;40;20814;-82
2021/07/20 03:51:48;;;;;;;17.55;11.30;;;;;;;;;;1486255;39;20523;-83
2021/07/20 03:52:50;;;;;;;14.98;9.93;;;;;;;;;;1490868;39;20433;-83
2021/07/20 03:53:55;;;;;;;20.33;10.57;;;;;;;;;;1490503;39;20518;-83
2021/07/20 03:54:57;;;;;;;18.42;10.85;;;;;;;;;;1485456;40;20407;-82
2021/07/20 03:56:01;;;;;;;18.17;11.15;;;;;;;;;;1482521;39;20491;-82
2021/07/20 03:57:04;;;;;;;18.80;11.57;;;;;;;;;;1490515;39;20413;-81
2021/07/20 03:58:05;;;;;;;19.52;11.95;;;;;;;;;;1486114;40;20802;-82
2021/07/20 03:59:09;;;;;;;17.05;10.02;;;;;;;;;;1481894;39;20413;-82
2021/07/20 04:00:13;;;;;;;19.10;11.77;;;;;;;;;;1490235;39;20997;-82
2021/07/20 04:01:15;;;;;;;18.17;12.57;;;;;;;;;;1489913;39;20683;-81
2021/07/20 04:02:22;;;;;;;20.52;11.88;;;;;;;;;;1486201;39;20393;-82
2021/07/20 04:03:26;;;;;;;18.40;11.15;;;;;;;;;;1490343;39;20388;-82
2021/07/20 04:04:33;;;;;;;16.50;11.73;;;;;;;;;;1494973;39;20403;-82
2021/07/20 04:05:38;;;;;;;17.52;11.05;;;;;;;;;;1489767;39;20444;-82
2021/07/20 04:06:40;;;;;;;19.88;11.73;;;;;;;;;;1486037;39;20414;-82
2021/07/20 04:07:45;;;;;;;19.55;10.55;;;;;;;;;;1490437;39;20456;-82
2021/07/20 04:08:48;;;;;;;19.30;11.43;;;;;;;;;;1490115;39;20615;-82
2021/07/20 04:09:52;;;;;;;20.33;11.25;;;;;;;;;;1490309;39;20417;-82
2021/07/20 04:10:55;;;;;;;18.73;11.75;;;;;;;;;;1490091;39;20401;-82
2021/07/20 04:11:57;;;;;;;19.85;11.77;;;;;;;;;;1494145;39;20423;-82
2021/07/20 04:12:59;;;;;;;18.55;11.40;;;;;;;;;;1496584;39;20431;-81
2021/07/20 04:14:03;;;;;;;19.38;12.30;;;;;;;;;;1493022;39;20385;-81
2021/07/20 04:15:06;;;;;;;17.48;11.10;;;;;;;;;;1493073;39;20413;-82
2021/07/20 04:16:09;;;;;;;18.25;10.98;;;;;;;;;;1497508;39;20548;-80
2021/07/20 04:17:14;;;;;;;17.98;10.73;;;;;;;;;;1497407;39;20431;-82
2021/07/20 04:18:17;;;;;;;20.33;11.20;;;;;;;;;;1498492;39;20407;-81
2021/07/20 04:19:20;;;;;;;16.00;10.80;;;;;;;;;;1499694;39;20407;-80
2021/07/20 04:20:21;;;;;;;20.30;11.68;;;;;;;;;;1495707;39;20424;-81
2021/07/20 04:21:23;;;;;;;20.55;11.57;;;;;;;;;;1493618;39;20818;-82
2021/07/20 04:22:25;;;;;;;19.50;10.80;;;;;;;;;;1488079;40;20423;-81
2021/07/20 04:23:27;;;;;;;17.75;11.32;;;;;;;;;;1485031;39;20469;-82
2021/07/20 04:24:29;;;;;;;18.27;11.25;;;;;;;;;;1486953;40;20420;-82
2021/07/20 04:25:35;;;;;;;15.43;10.73;;;;;;;;;;1491609;39;20439;-82
2021/07/20 04:26:39;;;;;;;19.23;11.50;;;;;;;;;;1491177;40;20426;-82
2021/07/20 04:27:42;;;;;;;19.45;10.70;;;;;;;;;;1489090;39;20387;-81
2021/07/20 04:28:44;;;;;;;16.65;10.77;;;;;;;;;;1487148;40;20407;-81
2021/07/20 04:29:46;;;;;;;18.23;10.88;;;;;;;;;;1483336;40;20889;-82
2021/07/20 04:30:50;;;;;;;18.85;10.73;;;;;;;;;;1482663;40;20420;-81
2021/07/20 04:31:54;;;;;;;20.90;12.07;;;;;;;;;;1482502;40;20416;-82
2021/07/20 04:32:59;;;;;;;18.80;11.93;;;;;;;;;;1487175;39;20438;-82
2021/07/20 04:34:00;;;;;;;16.13;11.07;;;;;;;;;;1491477;39;20397;-82
2021/07/20 04:35:02;;;;;;;15.68;10.88;;;;;;;;;;1482133;40;20615;-82
2021/07/20 04:36:05;;;;;;;19.70;11.30;;;;;;;;;;1481957;39;20476;-82
2021/07/20 04:37:07;;;;;;;17.27;11.25;;;;;;;;;;1486046;40;20469;-82
2021/07/20 04:38:11;;;;;;;17.33;11.15;;;;;;;;;;1486205;39;20429;-82
2021/07/20 04:39:12;;;;;;;17.17;10.40;;;;;;;;;;1486057;40;20622;-82
2021/07/20 04:40:15;;;;;;;17.92;10.98;;;;;;;;;;1485883;39;20490;-81
2021/07/20 04:41:19;;;;;;;18.60;10.82;;;;;;;;;;1490006;39;20453;-82
2021/07/20 04:42:21;;;;;;;15.35;10.43;;;;;;;;;;1490476;39;20408;-82
2021/07/20 04:43:23;;;;;;;19.92;12.18;;;;;;;;;;1490590;39;20509;-81
2021/07/20 04:44:25;;;;;;;17.23;10.77;;;;;;;;;;1486198;40;20417;-82
2021/07/20 04:45:27;;;;;;;17.92;11.32;;;;;;;;;;1482154;40;20431;-82
2021/07/20 04:46:29;;;;;;;17.02;10.95;;;;;;;;;;1481971;40;20430;-82
2021/07/20 04:47:31;;;;;;;19.25;11.52;;;;;;;;;;1478361;40;20454;-82
2021/07/20 04:48:34;;;;;;;16.10;10.68;;;;;;;;;;1481899;40;20840;-81
2021/07/20 04:49:38;;;;;;;18.45;11.13;;;;;;;;;;1478327;40;20399;-82
2021/07/20 04:50:40;;;;;;;17.58;11.02;;;;;;;;;;1478608;40;20425;-82
2021/07/20 04:51:45;;;;;;;17.90;10.82;;;;;;;;;;1482671;40;20537;-82
2021/07/20 04:52:47;;;;;;;17.63;10.85;;;;;;;;;;1482914;40;20404;-82
2021/07/20 04:53:50;;;;;;;18.80;10.77;;;;;;;;;;1486350;40;20406;-83
2021/07/20 04:54:52;;;;;;;16.20;10.05;;;;;;;;;;1482775;40;20475;-83
2021/07/20 04:55:54;;;;;;;16.30;10.88;;;;;;;;;;1482941;39;20766;-83
2021/07/20 04:56:59;;;;;;;18.83;10.93;;;;;;;;;;1486704;39;20673;-83
2021/07/20 04:58:02;;;;;;;18.45;10.82;;;;;;;;;;1491064;39;20671;-82
2021/07/20 04:59:04;;;;;;;17.15;11.63;;;;;;;;;;1490701;39;20462;-82
2021/07/20 05:00:09;;;;;;;14.95;10.27;;;;;;;;;;1486288;39;20433;-83
2021/07/20 05:01:12;;;;;;;15.35;10.23;;;;;;;;;;1490808;39;20497;-83
2021/07/20 05:02:15;;;;;;;18.88;11.70;;;;;;;;;;1486421;40;20411;-82
2021/07/20 05:03:19;;;;;;;16.92;10.48;;;;;;;;;;1486709;39;20402;-81
2021/07/20 05:04:22;;;;;;;17.08;10.82;;;;;;;;;;1495236;39;20427;-82
2021/07/20 05:05:25;;;;;;;14.38;9.90;;;;;;;;;;1486403;40;20522;-83
2021/07/20 05:06:28;;;;;;;16.88;10.68;;;;;;;;;;1486597;39;20407;-82
2021/07/20 05:07:30;;;;;;;15.30;10.80;;;;;;;;;;1486239;40;20415;-82
2021/07/20 05:08:38;;;;;;;16.00;11.32;;;;;;;;;;1480126;40;20416;-82
2021/07/20 05:09:40;;;;;;;15.95;10.88;;;;;;;;;;1486831;39;20470;-83
2021/07/20 05:10:47;;;;;;;15.75;11.10;;;;;;;;;;1491010;39;20437;-81
2021/07/20 05:11:49;;;;;;;18.33;11.75;;;;;;;;;;1490452;39;20435;-83
2021/07/20 05:12:52;;;;;;;17.70;11.47;;;;;;;;;;1490354;39;20435;-82
2021/07/20 05:13:53;;;;;;;18.30;11.13;;;;;;;;;;1490415;39;20453;-83
2021/07/20 05:14:55;;;;;;;14.95;9.43;;;;;;;;;;1486238;40;20413;-83
2021/07/20 05:16:06;;;;;;;16.97;10.80;;;;;;;;;;1478651;40;20586;-82
2021/07/20 05:17:10;;;;;;;19.10;11.95;;;;;;;;;;1482676;40;20456;-82
2021/07/20 05:18:13;;;;;;;15.77;10.43;;;;;;;;;;1486177;40;20434;-82
2021/07/20 05:19:16;;;;;;;17.10;10.70;;;;;;;;;;1482277;40;20423;-83
2021/07/20 05:20:19;;;;;;;16.30;10.75;;;;;;;;;;1482102;40;20424;-83
2021/07/20 05:21:22;;;;;;;14.30;10.75;;;;;;;;;;1486482;39;20533;-82
2021/07/20 05:22:25;;;;;;;16.25;10.85;;;;;;;;;;1482028;40;20400;-82
2021/07/20 05:23:29;;;;;;;16.00;10.20;;;;;;;;;;1482167;39;20710;-82
2021/07/20 05:24:31;;;;;;;14.48;10.30;;;;;;;;;;1481698;40;20890;-82
2021/07/20 05:25:33;;;;;;;15.30;10.68;;;;;;;;;;1482425;40;20821;-82
2021/07/20 05:26:37;;;;;;;16.08;10.20;;;;;;;;;;1486100;39;20406;-82
2021/07/20 05:27:43;;;;;;;17.58;10.85;;;;;;;;;;1486164;40;20458;-83
2021/07/20 05:28:45;;;;;;;15.40;9.73;;;;;;;;;;1482242;40;20416;-82
2021/07/20 05:29:48;;;;;;;15.68;9.73;;;;;;;;;;1477868;40;20787;-83
2021/07/20 05:30:53;;;;;;;16.58;10.95;;;;;;;;;;1478271;40;20485;-83
2021/07/20 05:31:56;;;;;;;14.93;10.27;;;;;;;;;;1486306;39;20468;-82
2021/07/20 05:32:58;;;;;;;16.40;10.43;;;;;;;;;;1490687;39;20413;-83
2021/07/20 05:33:59;;;;;;;16.90;10.52;;;;;;;;;;1486177;40;21091;-82
2021/07/20 05:35:02;;;;;;;19.75;10.98;;;;;;;;;;1482078;40;20432;-82
2021/07/20 05:36:05;;;;;;;16.75;11.07;;;;;;;;;;1482211;40;20785;-82
2021/07/20 05:37:07;;;;;;;15.20;9.85;;;;;;;;;;1486240;39;20505;-82
2021/07/20 05:38:10;;;;;;;14.82;9.90;;;;;;;;;;1490873;39;20978;-82
2021/07/20 05:39:12;;;;;;;16.52;10.77;;;;;;;;;;1490417;39;20461;-82
2021/07/20 05:40:19;;;;;;;15.80;9.77;;;;;;;;;;1486059;40;20419;-82
2021/07/20 05:41:21;;;;;;;16.17;10.02;;;;;;;;;;1485985;40;20423;-82
2021/07/20 05:42:23;;;;;;;15.23;10.10;;;;;;;;;;1485851;39;20467;-82
2021/07/20 05:43:26;;;;;;;13.63;9.35;;;;;;;;;;1486069;40;20454;-82
2021/07/20 05:44:28;;;;;;;14.65;10.68;;;;;;;;;;1485887;39;20509;-82
2021/07/20 05:45:31;;;;;;;16.52;10.63;;;;;;;;;;1481770;40;20562;-82
2021/07/20 05:46:33;;;;;;;14.50;9.98;;;;;;;;;;1481946;39;20501;-82
2021/07/20 05:47:38;;;;;;;15.18;9.27;;;;;;;;;;1490851;39;20425;-82
2021/07/20 05:48:43;;;;;;;15.98;10.10;;;;;;;;;;1486201;40;20783;-84
2021/07/20 05:49:44;;;;;;;13.25;9.70;;;;;;;;;;1482114;40;20412;-82
2021/07/20 05:50:54;;;;;;;14.10;9.43;;;;;;;;;;1486606;39;20468;-82
2021/07/20 05:51:56;;;;;;;15.23;9.50;;;;;;;;;;1486360;40;20435;-82
2021/07/20 05:53:00;;;;;;;13.75;9.10;;;;;;;;;;1486549;39;20424;-83
2021/07/20 05:54:03;;;;;;;14.68;9.43;;;;;;;;;;1481745;40;20899;-82
2021/07/20 05:55:06;;;;;;;13.10;9.55;;;;;;;;;;1473982;40;20491;-82
2021/07/20 05:56:08;;;;;;;15.07;9.05;;;;;;;;;;1477741;40;20843;-82
2021/07/20 05:57:12;;;;;;;16.63;9.50;;;;;;;;;;1485953;39;20414;-83
2021/07/20 05:58:16;;;;;;;14.57;9.25;;;;;;;;;;1490318;39;20728;-82
2021/07/20 05:59:19;;;;;;;13.52;9.10;;;;;;;;;;1485548;40;20454;-82
2021/07/20 06:00:26;;;;;;;14.77;9.47;;;;;;;;;;1482008;40;20486;-83
2021/07/20 06:01:29;;;;;;;12.85;9.45;;;;;;;;;;1486227;39;20411;-83
2021/07/20 06:02:32;;;;;;;13.90;8.52;;;;;;;;;;1485799;40;20415;-82
2021/07/20 06:03:35;;;;;;;15.23;8.93;;;;;;;;;;1481960;40;20411;-82
2021/07/20 06:04:38;;;;;;;10.55;8.20;;;;;;;;;;1481800;40;20412;-82
2021/07/20 06:05:43;;;;;;;13.07;9.05;;;;;;;;;;1486458;39;20606;-83
2021/07/20 06:06:49;;;;;;;12.68;9.27;;;;;;;;;;1490527;39;20419;-82
2021/07/20 06:07:50;;;;;;;15.95;9.40;;;;;;;;;;1491031;39;20382;-82
2021/07/20 06:08:53;;;;;;;12.02;8.07;;;;;;;;;;1482485;40;20603;-83
2021/07/20 06:09:55;;;;;;;11.68;8.75;;;;;;;;;;1482371;40;20412;-82
2021/07/20 06:11:03;;;;;;;11.55;8.55;;;;;;;;;;1486957;40;20403;-81
2021/07/20 06:12:08;;;;;;;14.65;9.00;;;;;;;;;;1482218;40;20393;-82
2021/07/20 06:13:11;;;;;;;12.40;8.63;;;;;;;;;;1482262;40;20416;-82
2021/07/20 06:14:16;;;;;;;13.25;8.18;;;;;;;;;;1486820;40;20470;-82
2021/07/20 06:15:18;;;;;;;11.55;8.18;;;;;;;;;;1482038;40;20392;-82
2021/07/20 06:16:22;;;;;;;13.33;8.37;;;;;;;;;;1477505;40;21099;-82
2021/07/20 06:17:24;;;;;;;11.23;7.95;;;;;;;;;;1482149;40;20401;-82
2021/07/20 06:18:26;;;;;;;12.80;8.85;;;;;;;;;;1486562;40;20431;-83